createdAt,value
2018-09-21T00:02:27.801Z,95153.87
2018-09-21T00:04:56.578Z,95146.67
2018-09-21T00:07:25.187Z,95145.84
2018-09-21T00:09:54.226Z,95137.59
2018-09-21T00:12:23.024Z,95140.81
2018-09-21T00:14:52.010Z,95139.98
2018-09-21T00:17:20.819Z,95144.09
2018-09-21T00:19:50.055Z,95143.77
2018-09-21T00:22:19.136Z,95144.60
2018-09-21T00:24:48.149Z,95142.38
2018-09-21T00:27:17.098Z,95145.87
2018-09-21T00:29:46.087Z,95144.33
2018-09-21T00:32:14.726Z,95144.28
2018-09-21T00:34:43.396Z,95137.45
2018-09-21T00:37:12.321Z,95141.06
2018-09-21T00:39:41.441Z,95146.16
2018-09-21T00:42:10.581Z,95143.45
2018-09-21T00:44:39.652Z,95142.53
2018-09-21T00:47:08.603Z,95147.47
2018-09-21T00:49:37.508Z,95142.49
2018-09-21T00:52:06.409Z,95141.61
2018-09-21T00:54:35.374Z,95140.59
2018-09-21T00:57:04.015Z,95143.06
2018-09-21T00:59:33.203Z,95143.45
2018-09-21T01:02:01.979Z,95148.73
2018-09-21T01:04:35.646Z,95140.39
2018-09-21T01:07:04.846Z,95140.39
2018-09-21T01:09:33.778Z,95143.07
2018-09-21T01:12:02.675Z,95142.59
2018-09-21T01:14:31.763Z,95145.59
2018-09-21T01:17:00.535Z,95144.42
2018-09-21T01:19:29.613Z,95144.80
2018-09-21T01:21:58.513Z,95084.57
2018-09-21T01:24:27.547Z,95145.27
2018-09-21T01:26:56.282Z,95149.72
2018-09-21T01:29:25.286Z,95143.81
2018-09-21T01:31:54.034Z,95138.95
2018-09-21T01:34:22.789Z,95145.52
2018-09-21T01:36:51.801Z,95146.87
2018-09-21T01:39:21.038Z,95151.01
2018-09-21T01:41:50.015Z,95155.53
2018-09-21T01:44:18.950Z,95155.50
2018-09-21T01:46:47.581Z,95152.36
2018-09-21T01:49:16.753Z,95154.42
2018-09-21T01:51:45.625Z,95149.97
2018-09-21T01:54:14.710Z,95146.48
2018-09-21T01:56:43.634Z,95148.07
2018-09-21T01:59:12.299Z,95148.59
2018-09-21T02:01:41.094Z,95148.66
2018-09-21T02:04:09.806Z,95149.34
2018-09-21T02:06:38.803Z,95146.15
2018-09-21T02:09:08.903Z,95142.27
2018-09-21T02:11:37.943Z,95143.16
2018-09-21T02:14:06.997Z,95141.53
2018-09-21T02:16:35.938Z,95147.10
2018-09-21T02:19:04.571Z,95144.84
2018-09-21T02:21:33.369Z,95147.75
2018-09-21T02:24:02.317Z,95143.81
2018-09-21T02:26:31.070Z,95140.07
2018-09-21T02:28:59.656Z,95146.90
2018-09-21T02:31:28.326Z,95141.05
2018-09-21T02:33:57.039Z,95141.29
2018-09-21T02:36:26.170Z,95145.22
2018-09-21T02:38:55.194Z,95142.33
2018-09-21T02:41:24.180Z,95146.48
2018-09-21T02:43:53.167Z,95142.50
2018-09-21T02:46:22.059Z,95143.48
2018-09-21T02:48:51.192Z,95146.76
2018-09-21T02:51:19.990Z,95147.27
2018-09-21T02:53:48.778Z,95149.27
2018-09-21T02:56:18.130Z,95149.44
2018-09-21T02:58:46.975Z,95150.73
2018-09-21T03:01:15.725Z,95149.84
2018-09-21T03:03:44.387Z,95153.91
2018-09-21T03:06:13.662Z,95157.38
2018-09-21T03:08:42.603Z,95151.99
2018-09-21T03:11:11.861Z,95156.27
2018-09-21T03:13:41.053Z,95159.55
2018-09-21T03:16:09.795Z,95161.78
2018-09-21T03:18:38.816Z,95161.31
2018-09-21T03:21:07.604Z,95159.56
2018-09-21T03:23:36.402Z,95159.44
2018-09-21T03:26:05.323Z,95160.13
2018-09-21T03:28:34.115Z,95159.03
2018-09-21T03:31:02.774Z,95155.55
2018-09-21T03:33:31.722Z,95156.55
2018-09-21T03:36:00.913Z,95160.94
2018-09-21T03:38:29.906Z,95159.39
2018-09-21T03:40:58.694Z,95155.38
2018-09-21T03:43:28.518Z,95157.64
2018-09-21T03:45:57.442Z,95157.92
2018-09-21T03:48:26.372Z,95155.16
2018-09-21T03:50:55.204Z,95159.11
2018-09-21T03:53:23.879Z,95163.70
2018-09-21T03:55:52.815Z,95167.23
2018-09-21T03:58:21.559Z,95157.45
2018-09-21T04:00:50.318Z,95159.75
2018-09-21T04:03:18.931Z,95160.13
2018-09-21T04:05:47.786Z,95161.56
2018-09-21T04:08:16.611Z,95166.41
2018-09-21T04:10:45.402Z,95159.06
2018-09-21T04:13:14.170Z,95160.02
2018-09-21T04:18:45.831Z,95165.95
2018-09-21T04:21:14.591Z,95164.12
2018-09-21T04:23:43.298Z,95169.01
2018-09-21T04:26:12.355Z,95165.02
2018-09-21T04:28:41.337Z,95167.35
2018-09-21T04:31:10.259Z,95163.53
2018-09-21T04:33:39.206Z,95162.96
2018-09-21T04:36:08.091Z,95165.06
2018-09-21T04:38:37.096Z,95167.53
2018-09-21T04:41:06.136Z,95169.70
2018-09-21T04:43:34.972Z,95176.84
2018-09-21T04:46:03.962Z,95174.68
2018-09-21T04:48:32.597Z,95182.66
2018-09-21T04:51:01.350Z,95183.69
2018-09-21T04:53:30.015Z,95183.10
2018-09-21T04:55:59.135Z,95176.56
2018-09-21T04:58:28.177Z,95182.06
2018-09-21T05:00:57.091Z,95187.09
2018-09-21T05:03:26.114Z,95176.91
2018-09-21T05:05:55.187Z,95179.66
2018-09-21T05:08:24.318Z,95179.36
2018-09-21T05:10:53.214Z,95172.95
2018-09-21T05:13:22.135Z,95171.78
2018-09-21T05:15:50.972Z,95176.94
2018-09-21T05:18:19.635Z,95178.64
2018-09-21T05:20:48.445Z,95170.54
2018-09-21T05:23:17.218Z,95179.20
2018-09-21T05:25:46.363Z,95175.58
2018-09-21T05:28:15.380Z,95163.38
2018-09-21T05:30:44.311Z,95169.54
2018-09-21T05:33:13.193Z,95165.20
2018-09-21T05:35:42.034Z,95174.14
2018-09-21T05:38:10.971Z,95173.48
2018-09-21T05:40:39.869Z,95174.88
2018-09-21T05:43:08.953Z,95168.38
2018-09-21T05:45:37.964Z,95172.64
2018-09-21T05:48:06.642Z,95168.69
2018-09-21T05:50:35.434Z,95170.81
2018-09-21T05:53:04.159Z,95168.48
2018-09-21T05:55:33.038Z,95171.91
2018-09-21T05:58:02.423Z,95176.13
2018-09-21T06:00:31.127Z,95177.70
2018-09-21T06:03:00.173Z,95174.27
2018-09-21T06:05:29.117Z,95173.45
2018-09-21T06:07:58.014Z,95169.73
2018-09-21T06:10:26.850Z,95170.52
2018-09-21T06:12:55.442Z,95170.72
2018-09-21T06:15:24.402Z,95164.63
2018-09-21T06:17:53.116Z,95167.70
2018-09-21T06:20:21.798Z,95172.34
2018-09-21T06:22:50.428Z,95172.25
2018-09-21T06:25:19.242Z,95174.86
2018-09-21T06:27:48.177Z,95170.34
2018-09-21T06:30:17.167Z,95164.70
2018-09-21T06:32:46.000Z,95171.64
2018-09-21T06:35:15.142Z,95169.60
2018-09-21T06:37:44.022Z,95172.10
2018-09-21T06:40:12.972Z,95177.03
2018-09-21T06:42:41.911Z,95177.45
2018-09-21T06:45:10.762Z,95169.16
2018-09-21T06:47:39.513Z,95170.55
2018-09-21T06:50:08.342Z,95164.07
2018-09-21T06:52:36.942Z,95165.98
2018-09-21T06:55:05.993Z,95163.88
2018-09-21T06:57:35.208Z,95166.59
2018-09-21T07:00:04.327Z,95171.30
2018-09-21T07:02:33.108Z,95176.52
2018-09-21T07:05:07.047Z,95179.82
2018-09-21T07:07:36.139Z,95179.11
2018-09-21T07:10:05.293Z,95174.34
2018-09-21T07:12:34.029Z,95173.81
2018-09-21T07:15:02.914Z,95177.54
2018-09-21T07:17:31.754Z,95178.98
2018-09-21T07:20:00.444Z,95173.43
2018-09-21T07:22:29.300Z,95176.53
2018-09-21T07:24:58.374Z,95179.46
2018-09-21T07:27:27.616Z,95181.44
2018-09-21T07:29:56.375Z,95176.49
2018-09-21T07:32:25.572Z,95180.14
2018-09-21T07:34:55.718Z,95181.33
2018-09-21T07:37:24.436Z,95187.12
2018-09-21T07:39:53.538Z,95178.00
2018-09-21T07:42:22.478Z,95175.47
2018-09-21T07:44:52.602Z,95178.55
2018-09-21T07:47:21.307Z,95169.25
2018-09-21T07:49:50.063Z,95165.05
2018-09-21T07:52:18.739Z,95167.03
2018-09-21T07:54:47.706Z,95167.98
2018-09-21T07:57:16.623Z,95166.06
2018-09-21T07:59:45.594Z,95168.34
2018-09-21T08:02:14.427Z,95166.83
2018-09-21T08:04:43.498Z,95163.61
2018-09-21T08:07:12.345Z,95165.38
2018-09-21T08:09:41.279Z,95161.52
2018-09-21T08:12:10.064Z,95161.94
2018-09-21T08:14:38.948Z,95160.73
2018-09-21T08:17:07.944Z,95159.27
2018-09-21T08:19:36.633Z,95155.51
2018-09-21T08:22:05.259Z,95159.84
2018-09-21T08:24:34.341Z,95149.23
2018-09-21T08:27:03.467Z,95147.13
2018-09-21T08:29:32.375Z,95150.75
2018-09-21T08:32:01.551Z,95147.42
2018-09-21T08:34:30.438Z,95149.48
2018-09-21T08:36:59.390Z,95152.39
2018-09-21T08:39:28.256Z,95151.25
2018-09-21T08:41:57.311Z,95146.65
2018-09-21T08:44:26.362Z,95143.16
2018-09-21T08:46:55.142Z,95142.77
2018-09-21T08:49:23.827Z,95139.14
2018-09-21T08:51:52.589Z,95130.73
2018-09-21T08:54:21.256Z,95128.14
2018-09-21T08:56:50.404Z,95132.95
2018-09-21T08:59:19.166Z,95078.30
2018-09-21T09:01:48.167Z,95130.20
2018-09-21T09:04:16.971Z,95126.05
2018-09-21T09:06:46.051Z,95121.24
2018-09-21T09:09:15.267Z,95118.37
2018-09-21T09:11:44.311Z,95121.48
2018-09-21T09:14:13.073Z,95120.79
2018-09-21T09:16:41.974Z,95118.34
2018-09-21T09:19:10.706Z,95122.51
2018-09-21T09:21:39.642Z,95121.63
2018-09-21T09:24:08.579Z,95125.05
2018-09-21T09:26:37.692Z,95119.09
2018-09-21T09:29:07.052Z,95115.35
2018-09-21T09:31:36.333Z,95109.21
2018-09-21T09:34:05.366Z,95112.02
2018-09-21T09:36:34.007Z,95107.22
2018-09-21T09:39:02.670Z,95101.91
2018-09-21T09:41:31.463Z,95104.34
2018-09-21T09:44:00.580Z,95106.52
2018-09-21T09:46:31.879Z,95104.47
2018-09-21T09:49:01.409Z,95107.68
2018-09-21T09:51:30.166Z,95102.93
2018-09-21T09:53:59.019Z,95097.48
2018-09-21T09:56:27.935Z,95100.03
2018-09-21T09:58:57.015Z,95088.34
2018-09-21T10:01:25.863Z,95091.23
2018-09-21T10:03:55.135Z,95090.34
2018-09-21T10:06:24.127Z,95082.23
2018-09-21T10:08:53.250Z,95082.86
2018-09-21T10:11:22.122Z,95077.45
2018-09-21T10:13:50.725Z,95083.13
2018-09-21T10:16:19.514Z,95083.94
2018-09-21T10:18:48.279Z,95082.34
2018-09-21T10:21:17.088Z,95078.45
2018-09-21T10:23:45.938Z,95081.97
2018-09-21T10:26:14.778Z,95076.27
2018-09-21T10:28:44.105Z,95075.60
2018-09-21T10:31:12.980Z,95075.85
2018-09-21T10:33:42.017Z,95078.69
2018-09-21T10:36:10.649Z,95071.87
2018-09-21T11:49:59.505Z,95009.20
2018-09-21T11:52:28.330Z,95007.04
2018-09-21T11:54:56.957Z,95003.99
2018-09-21T11:57:25.765Z,94997.91
2018-09-21T11:59:54.740Z,94988.56
2018-09-21T12:02:23.646Z,95000.98
2018-09-21T12:04:52.758Z,94998.61
2018-09-21T12:09:49.649Z,94997.72
2018-09-21T12:12:18.510Z,94997.86
2018-09-21T12:14:47.485Z,94993.79
2018-09-21T12:17:16.381Z,94999.59
2018-09-21T12:19:45.158Z,94989.98
2018-09-21T12:22:13.799Z,94985.56
2018-09-21T12:24:42.476Z,94999.65
2018-09-21T12:27:11.567Z,94981.38
2018-09-21T12:29:40.885Z,94984.84
2018-09-21T12:32:09.943Z,94982.14
2018-09-21T12:34:39.032Z,94982.05
2018-09-21T12:37:08.007Z,94980.11
2018-09-21T12:39:37.236Z,94976.17
2018-09-21T12:42:06.129Z,94972.52
2018-09-21T12:44:34.842Z,94963.72
2018-09-21T12:47:03.580Z,94962.83
2018-09-21T12:49:33.683Z,94964.94
2018-09-21T12:52:03.033Z,94960.31
2018-09-21T12:54:31.674Z,94959.77
2018-09-21T12:57:00.332Z,94962.91
2018-09-21T12:59:29.367Z,94964.40
2018-09-21T13:01:58.489Z,94956.95
2018-09-21T13:04:27.312Z,94955.91
2018-09-21T13:06:56.406Z,94960.28
2018-09-21T13:09:25.251Z,94952.97
2018-09-21T13:11:54.067Z,94959.70
2018-09-21T13:14:22.898Z,94957.19
2018-09-21T13:16:51.517Z,94958.97
2018-09-21T13:19:20.474Z,94952.85
2018-09-21T13:21:49.690Z,94958.49
2018-09-21T13:24:18.424Z,94951.54
2018-09-21T13:26:47.371Z,94953.92
2018-09-21T13:29:16.243Z,94942.46
2018-09-21T13:31:44.861Z,94944.58
2018-09-21T13:34:13.665Z,94934.59
2018-09-21T13:36:42.449Z,94897.56
2018-09-21T13:39:12.512Z,94942.66
2018-09-21T13:41:41.426Z,94942.91
2018-09-21T13:44:10.092Z,94942.21
2018-09-21T13:46:38.910Z,94947.32
2018-09-21T13:49:08.015Z,94942.34
2018-09-21T13:51:36.910Z,94942.53
2018-09-21T13:54:05.661Z,94941.02
2018-09-21T13:56:36.334Z,94941.66
2018-09-21T13:59:05.248Z,94945.59
2018-09-21T14:01:33.863Z,94935.58
2018-09-21T14:04:02.802Z,94940.39
2018-09-21T14:06:31.696Z,94936.45
2018-09-21T14:09:00.431Z,94935.98
2018-09-21T14:11:29.011Z,94941.14
2018-09-21T14:13:57.634Z,94926.83
2018-09-21T14:16:26.346Z,94931.86
2018-09-21T14:18:55.363Z,94928.55
2018-09-21T14:21:23.987Z,94931.63
2018-09-21T14:23:52.794Z,94934.07
2018-09-21T14:26:22.226Z,94936.14
2018-09-21T14:28:51.060Z,94929.92
2018-09-21T14:31:19.939Z,94928.56
2018-09-21T14:33:49.273Z,94934.90
2018-09-21T14:36:18.287Z,94932.73
2018-09-21T14:38:47.501Z,94931.52
2018-09-21T14:41:16.411Z,94925.94
2018-09-21T14:43:45.147Z,94921.62
2018-09-21T14:46:13.851Z,94926.30
2018-09-21T14:48:42.950Z,94926.33
2018-09-21T14:51:11.843Z,94932.55
2018-09-21T14:53:40.675Z,94930.63
2018-09-21T14:56:09.619Z,94924.39
2018-09-21T14:58:38.422Z,94928.80
2018-09-21T15:01:07.271Z,94925.26
2018-09-21T15:03:36.201Z,94927.19
2018-09-21T15:06:04.959Z,94921.41
2018-09-21T15:08:33.937Z,94923.79
2018-09-21T15:11:02.999Z,94921.70
2018-09-21T15:13:31.758Z,94924.63
2018-09-21T15:16:00.543Z,94921.28
2018-09-21T15:18:29.750Z,94924.66
2018-09-21T15:20:58.743Z,94916.95
2018-09-21T15:23:27.770Z,94922.52
2018-09-21T15:25:56.741Z,94919.95
2018-09-21T15:28:25.478Z,94919.88
2018-09-21T15:30:54.372Z,94915.46
2018-09-21T15:33:23.189Z,94911.18
2018-09-21T15:35:52.252Z,94911.69
2018-09-21T15:38:21.302Z,94911.14
2018-09-21T15:40:50.010Z,94912.56
2018-09-21T15:43:19.003Z,94906.41
2018-09-21T15:45:48.051Z,94910.48
2018-09-21T15:48:16.935Z,94906.70
2018-09-21T15:50:46.075Z,94902.73
2018-09-21T15:53:14.974Z,94897.98
2018-09-21T15:55:44.075Z,94896.65
2018-09-21T15:58:13.006Z,94901.22
2018-09-21T16:00:42.171Z,94900.66
2018-09-21T16:03:11.208Z,94898.09
2018-09-21T16:05:39.988Z,94904.70
2018-09-21T16:08:08.740Z,94896.47
2018-09-21T16:10:37.500Z,94903.56
2018-09-21T16:13:06.283Z,94902.11
2018-09-21T16:15:34.999Z,94906.27
2018-09-21T16:18:03.839Z,94904.26
2018-09-21T16:20:32.930Z,94905.66
2018-09-21T16:23:01.875Z,94903.30
2018-09-21T16:25:31.131Z,94902.87
2018-09-21T16:28:00.014Z,94908.66
2018-09-21T16:30:29.052Z,94905.55
2018-09-21T16:32:58.310Z,94908.45
2018-09-21T16:35:27.156Z,94903.48
2018-09-21T16:37:56.067Z,94908.69
2018-09-21T16:40:24.927Z,94917.02
2018-09-21T16:42:53.581Z,94903.31
2018-09-21T16:45:22.479Z,94903.34
2018-09-21T16:47:51.291Z,94909.16
2018-09-21T16:50:20.501Z,94902.77
2018-09-21T16:52:49.498Z,94910.53
2018-09-21T16:55:18.414Z,94900.98
2018-09-21T16:57:47.388Z,94906.69
2018-09-21T17:00:16.538Z,94903.18
2018-09-21T17:02:45.332Z,94909.29
2018-09-21T17:05:14.146Z,94908.34
2018-09-21T17:07:43.254Z,94907.77
2018-09-21T17:10:12.000Z,94907.84
2018-09-21T17:12:40.846Z,94904.69
2018-09-21T17:15:09.822Z,94908.05
2018-09-21T17:17:38.652Z,94911.39
2018-09-21T17:20:07.589Z,94914.45
2018-09-21T17:22:36.640Z,94915.78
2018-09-21T17:25:05.507Z,94915.30
2018-09-21T17:27:34.488Z,94918.75
2018-09-21T17:30:03.531Z,94913.50
2018-09-21T17:32:32.330Z,94915.03
2018-09-21T17:35:03.888Z,94920.33
2018-09-21T17:37:33.150Z,94919.70
2018-09-21T17:40:01.814Z,94922.88
2018-09-21T17:42:30.573Z,94925.69
2018-09-21T17:44:59.374Z,94921.59
2018-09-21T17:47:28.276Z,94930.51
2018-09-21T17:49:56.978Z,94930.13
2018-09-21T17:52:25.931Z,94932.46
2018-09-21T17:54:55.103Z,94929.56
2018-09-21T17:57:24.122Z,94937.25
2018-09-21T17:59:52.940Z,94935.28
2018-09-21T18:02:21.721Z,94938.22
2018-09-21T18:04:50.471Z,94949.48
2018-09-21T18:07:19.985Z,94945.14
2018-09-21T18:09:49.746Z,94950.33
2018-09-21T18:12:18.499Z,94944.47
2018-09-21T18:14:47.483Z,94947.73
2018-09-21T18:17:16.430Z,94948.16
2018-09-21T18:19:45.115Z,94948.69
2018-09-21T18:22:13.993Z,94954.05
2018-09-21T18:24:42.821Z,94961.23
2018-09-21T18:27:11.775Z,94960.42
2018-09-21T18:29:40.886Z,94963.68
2018-09-21T18:32:09.758Z,94964.61
2018-09-21T18:34:38.870Z,94969.97
2018-09-21T18:37:07.563Z,94965.85
2018-09-21T18:39:36.580Z,94971.10
2018-09-21T18:42:05.375Z,94969.69
2018-09-21T18:44:34.219Z,94970.59
2018-09-21T18:47:03.146Z,94965.83
2018-09-21T18:49:31.938Z,94970.39
2018-09-21T18:52:00.750Z,94973.20
2018-09-21T18:54:29.627Z,94972.95
2018-09-21T18:56:58.645Z,94968.46
2018-09-21T18:59:27.373Z,94971.34
2018-09-21T19:01:56.399Z,94976.95
2018-09-21T19:04:25.385Z,94973.28
2018-09-21T19:06:54.120Z,94973.89
2018-09-21T19:09:22.695Z,94980.91
2018-09-21T19:11:51.321Z,94975.80
2018-09-21T19:14:20.308Z,94987.50
2018-09-21T19:16:49.267Z,94986.44
2018-09-21T19:19:18.096Z,94987.06
2018-09-21T19:21:46.719Z,94985.21
2018-09-21T19:24:15.674Z,94981.50
2018-09-21T19:26:44.880Z,94988.98
2018-09-21T19:29:13.858Z,94983.23
2018-09-21T19:31:42.873Z,94990.40
2018-09-21T19:34:11.601Z,94992.62
2018-09-21T19:36:40.400Z,94990.67
2018-09-21T19:39:10.928Z,94987.50
2018-09-21T19:41:39.538Z,94982.88
2018-09-21T19:44:08.374Z,94983.95
2018-09-21T19:46:37.445Z,94983.67
2018-09-21T19:49:06.517Z,94984.67
2018-09-21T19:51:35.267Z,94993.25
2018-09-21T19:54:04.080Z,94993.72
2018-09-21T19:56:33.090Z,94996.88
2018-09-21T19:59:01.976Z,94999.42
2018-09-21T20:01:30.984Z,94991.79
2018-09-21T20:04:00.067Z,94992.43
2018-09-21T20:06:28.842Z,94994.86
2018-09-21T20:08:57.526Z,94995.33
2018-09-21T20:11:26.154Z,94990.21
2018-09-21T20:13:55.379Z,94995.17
2018-09-21T20:16:24.222Z,94991.48
2018-09-21T20:18:53.119Z,94998.92
2018-09-21T20:21:21.794Z,94990.97
2018-09-21T20:23:50.777Z,94999.16
2018-09-21T20:26:19.752Z,94999.83
2018-09-21T20:28:48.893Z,95004.44
2018-09-21T20:31:22.796Z,95003.45
2018-09-21T20:33:51.791Z,95001.94
2018-09-21T20:36:20.512Z,95004.30
2018-09-21T20:38:49.146Z,95008.36
2018-09-21T20:41:18.035Z,95005.12
2018-09-21T20:43:46.921Z,95007.39
2018-09-21T20:46:17.058Z,95016.11
2018-09-21T20:48:46.063Z,95012.17
2018-09-21T20:51:14.856Z,95017.22
2018-09-21T20:53:43.496Z,95018.00
2018-09-21T20:56:12.455Z,95011.98
2018-09-21T20:58:41.201Z,95015.97
2018-09-21T21:01:10.277Z,95015.91
2018-09-21T21:03:39.110Z,95013.58
2018-09-21T21:06:08.151Z,95015.68
2018-09-21T21:08:37.256Z,95012.80
2018-09-21T21:11:06.407Z,95018.61
2018-09-21T21:13:35.248Z,95016.75
2018-09-21T21:16:04.061Z,95009.65
2018-09-21T21:18:32.706Z,95021.26
2018-09-21T21:21:01.945Z,95028.09
2018-09-21T21:23:30.778Z,95026.23
2018-09-21T21:25:59.645Z,95034.39
2018-09-21T21:28:28.866Z,95027.30
2018-09-21T21:30:57.813Z,95027.05
2018-09-21T21:33:27.107Z,95029.39
2018-09-21T21:35:55.768Z,95023.63
2018-09-21T21:38:24.560Z,95021.77
2018-09-21T21:40:53.302Z,95024.69
2018-09-21T21:43:22.431Z,95022.28
2018-09-21T21:45:51.126Z,95025.98
2018-09-21T21:48:19.922Z,95026.71
2018-09-21T21:50:48.745Z,95033.81
2018-09-21T21:53:17.655Z,95027.80
2018-09-21T21:55:46.783Z,95029.13
2018-09-21T21:58:15.699Z,95025.44
2018-09-21T22:00:49.723Z,95023.53
2018-09-21T22:03:18.538Z,95019.38
2018-09-21T22:05:47.368Z,95027.27
2018-09-21T22:08:16.125Z,95024.63
2018-09-21T22:10:45.256Z,95028.01
2018-09-21T22:13:19.083Z,95021.97
2018-09-21T22:15:47.843Z,95022.25
2018-09-21T22:18:16.671Z,95024.09
2018-09-21T22:20:45.540Z,95020.11
2018-09-21T22:23:14.569Z,95013.94
2018-09-21T22:25:43.507Z,95023.41
2018-09-21T22:28:12.535Z,95026.30
2018-09-21T22:30:41.438Z,95021.45
2018-09-21T22:33:10.213Z,95023.56
2018-09-21T22:35:38.867Z,95024.66
2018-09-21T22:38:07.640Z,95025.19
2018-09-21T22:40:36.646Z,95023.31
2018-09-21T22:43:05.655Z,95024.94
2018-09-21T22:45:34.706Z,95019.47
2018-09-21T22:48:03.635Z,95025.19
2018-09-21T22:50:32.583Z,95025.67
2018-09-21T22:53:01.408Z,95019.85
2018-09-21T22:55:30.158Z,95016.16
2018-09-21T22:57:58.983Z,95013.78
2018-09-21T23:00:27.852Z,95013.53
2018-09-21T23:02:56.538Z,95011.88
2018-09-21T23:05:25.184Z,95008.70
2018-09-21T23:07:53.854Z,95016.30
2018-09-21T23:10:22.803Z,95024.45
2018-09-21T23:12:51.546Z,95019.23
2018-09-21T23:15:20.323Z,95018.30
2018-09-21T23:17:49.163Z,95019.72
2018-09-21T23:20:18.306Z,95023.11
2018-09-21T23:22:47.102Z,95023.81
2018-09-21T23:25:16.229Z,95018.78
2018-09-21T23:27:45.242Z,95021.89
2018-09-21T23:30:14.279Z,95027.33
2018-09-21T23:32:42.840Z,95033.28
2018-09-21T23:35:11.551Z,95034.59
2018-09-21T23:37:40.203Z,95030.63
2018-09-21T23:40:09.271Z,95033.98
2018-09-21T23:42:38.161Z,95027.87
2018-09-21T23:45:07.544Z,95030.84
2018-09-21T23:47:36.410Z,95028.59
2018-09-21T23:50:05.280Z,95031.29
2018-09-21T23:52:34.177Z,95026.05
2018-09-21T23:55:03.134Z,95028.20
2018-09-21T23:57:31.883Z,95027.45
